createdAt,value
2023-01-31T00:02:28.926Z,0.79
2023-01-31T00:05:56.778Z,0.86
2023-01-31T00:09:24.472Z,0.91
2023-01-31T00:12:52.370Z,0.98
2023-01-31T00:16:20.175Z,1.01
2023-01-31T00:19:47.987Z,0.98
2023-01-31T00:23:15.900Z,1.01
2023-01-31T00:26:43.959Z,1.05
2023-01-31T00:30:11.739Z,1.05
2023-01-31T00:33:39.598Z,1.09
2023-01-31T00:37:07.549Z,1.05
2023-01-31T00:40:35.867Z,1.04
2023-01-31T00:44:03.215Z,1.02
2023-01-31T00:47:31.061Z,0.99
2023-01-31T00:50:58.855Z,0.97
2023-01-31T00:54:26.808Z,0.90
2023-01-31T00:57:55.024Z,0.79
2023-01-31T01:01:23.487Z,0.81
2023-01-31T01:04:51.353Z,0.84
2023-01-31T01:08:19.327Z,0.85
2023-01-31T01:11:47.115Z,0.86
2023-01-31T01:15:15.020Z,0.82
2023-01-31T01:18:42.817Z,0.79
2023-01-31T01:22:10.564Z,0.77
2023-01-31T01:25:19.923Z,0.69
2023-01-31T01:28:47.386Z,0.59
2023-01-31T01:32:15.276Z,0.55
2023-01-31T01:35:43.373Z,0.48
2023-01-31T01:39:11.163Z,0.41
2023-01-31T01:42:39.190Z,0.40
2023-01-31T01:46:07.230Z,0.39
2023-01-31T01:49:35.092Z,0.47
2023-01-31T01:53:02.853Z,0.52
2023-01-31T01:56:31.394Z,0.54
2023-01-31T01:59:58.798Z,0.58
2023-01-31T02:03:27.253Z,0.65
2023-01-31T02:06:54.336Z,0.72
2023-01-31T02:10:02.879Z,0.78
2023-01-31T02:13:30.688Z,0.78
2023-01-31T02:16:38.776Z,0.79
2023-01-31T02:20:06.652Z,0.75
2023-01-31T02:23:22.434Z,0.77
2023-01-31T02:26:50.270Z,0.75
2023-01-31T02:30:18.155Z,0.71
2023-01-31T02:33:34.688Z,0.76
2023-01-31T02:37:02.489Z,0.75
2023-01-31T02:40:11.135Z,0.76
2023-01-31T02:43:38.816Z,0.81
2023-01-31T02:47:06.600Z,0.77
2023-01-31T02:50:34.749Z,0.76
2023-01-31T02:54:02.665Z,0.71
2023-01-31T02:57:31.019Z,0.64
2023-01-31T03:00:58.850Z,0.65
2023-01-31T03:04:08.119Z,0.60
2023-01-31T03:07:16.672Z,0.53
2023-01-31T03:10:44.511Z,0.49
2023-01-31T03:14:12.314Z,0.52
2023-01-31T03:17:40.052Z,0.51
2023-01-31T03:21:08.226Z,0.54
2023-01-31T03:24:36.192Z,0.54
2023-01-31T03:27:45.573Z,0.55
2023-01-31T03:31:13.526Z,0.52
2023-01-31T03:34:21.981Z,0.54
2023-01-31T03:37:49.831Z,0.57
2023-01-31T03:41:17.703Z,0.60
2023-01-31T03:44:45.496Z,0.63
2023-01-31T03:48:13.359Z,0.68
2023-01-31T03:51:22.472Z,0.71
2023-01-31T03:54:50.598Z,0.66
2023-01-31T03:58:18.764Z,0.66
2023-01-31T04:01:46.734Z,0.63
2023-01-31T04:05:14.841Z,0.56
2023-01-31T04:08:41.950Z,0.51
2023-01-31T04:11:51.007Z,0.49
2023-01-31T04:15:19.381Z,0.45
2023-01-31T04:18:47.088Z,0.47
2023-01-31T04:22:14.847Z,0.49
2023-01-31T04:25:23.759Z,0.46
2023-01-31T04:28:32.524Z,0.51
2023-01-31T04:32:00.362Z,0.54
2023-01-31T04:35:28.109Z,0.55
2023-01-31T04:38:56.204Z,0.57
2023-01-31T04:42:24.060Z,0.64
2023-01-31T04:45:51.766Z,0.63
2023-01-31T04:49:19.619Z,0.65
2023-01-31T04:52:47.525Z,0.72
2023-01-31T04:55:56.426Z,0.77
2023-01-31T04:59:24.207Z,0.77
2023-01-31T05:02:52.117Z,0.80
2023-01-31T05:06:19.865Z,0.79
2023-01-31T05:09:47.526Z,0.80
2023-01-31T05:13:15.514Z,0.80
2023-01-31T05:16:43.173Z,0.77
2023-01-31T05:20:10.992Z,0.73
2023-01-31T05:23:22.832Z,0.67
2023-01-31T05:26:50.948Z,0.61
2023-01-31T05:30:18.793Z,0.56
2023-01-31T05:33:46.559Z,0.54
2023-01-31T05:36:55.492Z,0.46
2023-01-31T05:40:23.703Z,0.43
2023-01-31T05:43:51.645Z,0.36
2023-01-31T05:47:19.651Z,0.28
2023-01-31T05:50:47.730Z,0.23
2023-01-31T05:54:15.599Z,0.15
2023-01-31T05:57:08.127Z,0.07
2023-01-31T06:00:36.276Z,-0.01
2023-01-31T06:04:04.016Z,-0.03
2023-01-31T06:07:32.143Z,-0.06
2023-01-31T06:10:59.987Z,-0.09
2023-01-31T06:14:27.385Z,-0.13
2023-01-31T06:17:55.261Z,-0.17
2023-01-31T06:21:04.063Z,-0.13
2023-01-31T06:24:31.962Z,-0.17
2023-01-31T06:27:59.909Z,-0.13
2023-01-31T06:31:27.735Z,-0.09
2023-01-31T06:34:56.179Z,-0.03
2023-01-31T06:38:23.516Z,0.04
2023-01-31T06:41:51.132Z,0.13
2023-01-31T06:45:19.463Z,0.17
2023-01-31T06:48:46.555Z,0.21
2023-01-31T06:52:15.105Z,0.18
2023-01-31T06:55:41.984Z,0.24
2023-01-31T06:59:09.773Z,0.30
2023-01-31T07:02:37.675Z,0.38
2023-01-31T07:06:05.509Z,0.45
2023-01-31T07:09:33.719Z,0.44
2023-01-31T07:13:01.489Z,0.49
2023-01-31T07:16:30.161Z,0.54
2023-01-31T07:19:57.657Z,0.56
2023-01-31T07:23:25.474Z,0.65
2023-01-31T07:26:53.154Z,0.66
2023-01-31T07:30:04.899Z,0.72
2023-01-31T07:33:32.635Z,0.74
2023-01-31T07:37:00.525Z,0.83
2023-01-31T07:40:28.433Z,0.88
2023-01-31T07:43:56.240Z,0.84
2023-01-31T07:47:24.306Z,0.90
2023-01-31T07:50:52.212Z,0.93
2023-01-31T07:54:20.003Z,0.96
2023-01-31T07:57:47.765Z,1.00
2023-01-31T08:00:55.680Z,1.03
2023-01-31T08:04:19.412Z,1.06
2023-01-31T08:07:32.988Z,1.10
2023-01-31T08:11:00.725Z,1.18
2023-01-31T08:14:09.684Z,1.24
2023-01-31T08:17:37.545Z,1.39
2023-01-31T08:21:05.436Z,1.41
2023-01-31T08:24:33.305Z,1.52
2023-01-31T08:27:41.693Z,1.62
2023-01-31T08:31:09.893Z,1.64
2023-01-31T08:34:17.987Z,1.66
2023-01-31T08:37:26.945Z,1.71
2023-01-31T08:40:54.830Z,1.87
2023-01-31T08:44:22.639Z,2.05
2023-01-31T08:47:50.443Z,2.16
2023-01-31T08:51:18.372Z,2.26
2023-01-31T08:54:46.162Z,2.41
2023-01-31T08:57:59.870Z,2.52
2023-01-31T09:01:03.248Z,2.70
2023-01-31T09:04:31.277Z,2.88
2023-01-31T09:07:58.871Z,2.96
2023-01-31T09:11:26.697Z,3.03
2023-01-31T09:14:42.493Z,3.10
2023-01-31T09:18:10.597Z,3.12
2023-01-31T09:21:38.710Z,3.14
2023-01-31T09:25:06.748Z,3.13
2023-01-31T09:27:55.783Z,3.36
2023-01-31T09:31:23.603Z,3.56
2023-01-31T09:34:32.155Z,3.85
2023-01-31T09:37:59.892Z,4.09
2023-01-31T09:41:09.622Z,4.27
2023-01-31T09:44:17.730Z,4.40
2023-01-31T09:47:45.553Z,4.34
2023-01-31T09:51:13.459Z,4.40
2023-01-31T09:54:41.294Z,4.48
2023-01-31T09:58:09.359Z,4.58
2023-01-31T10:01:37.328Z,4.43
2023-01-31T10:05:06.214Z,4.51
2023-01-31T10:08:34.131Z,4.60
2023-01-31T10:11:23.090Z,4.63
2023-01-31T10:14:47.531Z,4.66
2023-01-31T10:18:15.281Z,4.82
2023-01-31T10:21:43.173Z,4.92
2023-01-31T10:25:11.003Z,4.92
2023-01-31T10:28:38.885Z,5.01
2023-01-31T10:32:06.751Z,5.14
2023-01-31T10:35:34.543Z,5.21
2023-01-31T10:39:02.361Z,5.27
2023-01-31T10:42:30.719Z,5.28
2023-01-31T10:45:20.787Z,5.30
2023-01-31T10:48:49.171Z,5.26
2023-01-31T10:52:16.474Z,5.35
2023-01-31T10:55:44.186Z,5.33
2023-01-31T10:59:12.129Z,5.25
2023-01-31T11:02:40.038Z,5.19
2023-01-31T11:06:08.247Z,5.27
2023-01-31T11:09:36.309Z,5.32
2023-01-31T11:13:04.143Z,5.33
2023-01-31T11:16:14.209Z,5.40
2023-01-31T11:19:41.970Z,5.35
2023-01-31T11:23:09.726Z,5.39
2023-01-31T11:26:18.141Z,5.33
2023-01-31T11:29:45.957Z,5.29
2023-01-31T11:32:54.094Z,5.25
2023-01-31T11:36:22.058Z,5.39
2023-01-31T11:39:30.745Z,5.47
2023-01-31T11:42:58.682Z,5.53
2023-01-31T11:46:26.303Z,5.63
2023-01-31T11:49:35.353Z,5.59
2023-01-31T11:53:03.221Z,5.52
2023-01-31T11:56:31.014Z,5.69
2023-01-31T11:59:58.872Z,5.80
2023-01-31T12:03:26.665Z,5.94
2023-01-31T12:06:54.708Z,6.08
2023-01-31T12:10:22.632Z,6.17
2023-01-31T12:13:50.421Z,6.24
2023-01-31T12:17:18.199Z,6.27
2023-01-31T12:20:46.359Z,6.31
2023-01-31T12:24:13.946Z,6.23
2023-01-31T12:27:42.093Z,6.18
2023-01-31T12:31:10.352Z,6.14
2023-01-31T12:34:47.044Z,6.10
2023-01-31T12:38:06.505Z,6.05
2023-01-31T12:41:14.515Z,6.02
2023-01-31T12:44:42.294Z,6.08
2023-01-31T12:47:52.539Z,5.97
2023-01-31T12:51:20.306Z,5.92
2023-01-31T12:54:29.153Z,5.88
2023-01-31T12:57:56.895Z,5.89
2023-01-31T13:01:24.781Z,5.87
2023-01-31T13:04:52.550Z,5.89
2023-01-31T13:08:20.563Z,5.86
2023-01-31T13:11:48.378Z,5.93
2023-01-31T13:14:56.280Z,5.96
2023-01-31T13:18:10.989Z,6.12
2023-01-31T13:21:39.662Z,6.15
2023-01-31T13:25:07.710Z,6.20
2023-01-31T13:28:35.495Z,6.14
2023-01-31T13:32:03.535Z,6.17
2023-01-31T13:35:27.027Z,6.07
2023-01-31T13:38:35.907Z,6.07
2023-01-31T13:42:03.821Z,6.07
2023-01-31T13:45:40.375Z,6.03
2023-01-31T13:49:09.240Z,6.02
2023-01-31T13:52:37.447Z,6.07
2023-01-31T13:56:05.239Z,6.12
2023-01-31T13:59:16.242Z,6.25
2023-01-31T14:02:25.672Z,6.20
2023-01-31T14:05:35.681Z,6.20
2023-01-31T14:08:44.666Z,6.11
2023-01-31T14:12:12.584Z,5.88
2023-01-31T14:15:40.315Z,5.82
2023-01-31T14:18:48.754Z,5.91
2023-01-31T14:22:16.869Z,6.03
2023-01-31T14:25:44.702Z,5.71
2023-01-31T14:28:33.279Z,5.65
2023-01-31T14:31:42.293Z,5.57
2023-01-31T14:34:30.751Z,5.54
2023-01-31T14:37:58.584Z,5.48
2023-01-31T14:41:26.613Z,5.29
2023-01-31T14:44:54.311Z,5.29
2023-01-31T14:47:42.961Z,5.32
2023-01-31T14:51:10.934Z,5.42
2023-01-31T14:54:39.023Z,5.38
2023-01-31T14:58:07.237Z,5.28
2023-01-31T15:01:16.324Z,5.19
2023-01-31T15:04:44.572Z,5.09
2023-01-31T15:07:54.493Z,5.07
2023-01-31T15:11:35.325Z,4.98
2023-01-31T15:14:49.811Z,4.96
2023-01-31T15:18:05.738Z,4.87
2023-01-31T15:21:35.014Z,4.88
2023-01-31T15:25:02.926Z,4.79
2023-01-31T15:28:30.429Z,4.66
2023-01-31T15:31:58.163Z,4.64
2023-01-31T15:34:48.080Z,4.56
2023-01-31T15:37:36.107Z,4.53
2023-01-31T15:40:43.966Z,4.53
2023-01-31T15:44:12.045Z,4.47
2023-01-31T15:47:40.170Z,4.27
2023-01-31T15:51:08.098Z,3.99
2023-01-31T15:54:35.765Z,3.84
2023-01-31T15:58:03.579Z,3.64
2023-01-31T16:01:11.864Z,3.50
2023-01-31T16:04:40.223Z,3.38
2023-01-31T16:08:08.254Z,3.24
2023-01-31T16:11:16.572Z,3.14
2023-01-31T16:14:44.203Z,2.98
2023-01-31T16:18:12.114Z,2.84
2023-01-31T16:21:40.090Z,2.71
2023-01-31T16:25:07.891Z,2.59
2023-01-31T16:28:35.892Z,2.52
2023-01-31T16:32:03.755Z,2.45
2023-01-31T16:35:31.424Z,2.36
2023-01-31T16:38:59.404Z,2.23
2023-01-31T16:42:27.220Z,2.13
2023-01-31T16:45:54.963Z,2.10
2023-01-31T16:48:43.594Z,2.00
2023-01-31T16:52:11.320Z,1.91
2023-01-31T16:55:27.468Z,1.82
2023-01-31T16:58:55.652Z,1.73
2023-01-31T17:02:05.849Z,1.62
2023-01-31T17:05:33.817Z,1.53
2023-01-31T17:09:01.745Z,1.45
2023-01-31T17:12:29.282Z,1.35
2023-01-31T17:15:56.909Z,1.25
2023-01-31T17:18:42.883Z,1.20
2023-01-31T17:21:32.044Z,1.13
2023-01-31T17:25:00.107Z,0.98
2023-01-31T17:28:08.251Z,0.93
2023-01-31T17:31:36.260Z,0.85
2023-01-31T17:35:03.993Z,0.80
2023-01-31T17:38:32.109Z,0.76
2023-01-31T17:42:01.675Z,0.70
2023-01-31T17:45:29.517Z,0.69
2023-01-31T17:48:26.228Z,0.67
2023-01-31T17:51:47.668Z,0.64
2023-01-31T17:55:15.561Z,0.62
2023-01-31T17:58:43.312Z,0.59
2023-01-31T18:02:11.563Z,0.58
2023-01-31T18:05:24.557Z,0.51
2023-01-31T18:08:48.308Z,0.49
2023-01-31T18:12:16.140Z,0.46
2023-01-31T18:15:44.007Z,0.47
2023-01-31T18:18:53.409Z,0.46
2023-01-31T18:22:09.291Z,0.39
2023-01-31T18:25:37.026Z,0.32
2023-01-31T18:29:04.884Z,0.24
2023-01-31T18:32:32.710Z,0.16
2023-01-31T18:35:41.139Z,0.16
2023-01-31T18:39:08.968Z,0.14
2023-01-31T18:42:37.184Z,0.09
2023-01-31T18:46:05.202Z,0.10
2023-01-31T18:49:32.903Z,0.06
2023-01-31T18:53:01.394Z,0.03
2023-01-31T18:56:29.382Z,0.01
2023-01-31T18:59:57.493Z,0.02
2023-01-31T19:03:25.198Z,0.04
2023-01-31T19:06:33.964Z,0.11
2023-01-31T19:09:22.435Z,0.13
2023-01-31T19:12:30.371Z,0.23
2023-01-31T19:15:46.157Z,0.27
2023-01-31T19:19:13.870Z,0.31
2023-01-31T19:22:03.045Z,0.32
2023-01-31T19:25:12.201Z,0.30
2023-01-31T19:28:40.360Z,0.27
2023-01-31T19:32:08.310Z,0.23
2023-01-31T19:35:36.120Z,0.22
2023-01-31T19:39:04.085Z,0.23
2023-01-31T19:42:31.953Z,0.26
2023-01-31T19:45:59.832Z,0.28
2023-01-31T19:49:27.765Z,0.36
2023-01-31T19:52:43.913Z,0.41
2023-01-31T19:56:11.801Z,0.41
2023-01-31T19:59:39.452Z,0.42
2023-01-31T20:02:48.510Z,0.43
2023-01-31T20:05:45.121Z,0.47
2023-01-31T20:09:12.813Z,0.51
2023-01-31T20:12:40.654Z,0.53
2023-01-31T20:15:50.937Z,0.54
2023-01-31T20:18:59.625Z,0.55
2023-01-31T20:22:14.998Z,0.59
2023-01-31T20:25:42.672Z,0.58
2023-01-31T20:28:30.941Z,0.61
2023-01-31T20:31:58.935Z,0.64
2023-01-31T20:34:27.620Z,0.69
2023-01-31T20:37:55.431Z,0.74
2023-01-31T20:41:23.029Z,0.74
2023-01-31T20:44:51.393Z,0.76
2023-01-31T20:48:19.170Z,0.77
2023-01-31T20:51:47.596Z,0.83
2023-01-31T20:54:56.192Z,0.85
2023-01-31T20:58:24.188Z,0.93
2023-01-31T21:01:52.048Z,1.01
2023-01-31T21:05:19.894Z,1.06
2023-01-31T21:08:48.610Z,1.12
2023-01-31T21:12:15.450Z,1.15
2023-01-31T21:15:43.335Z,1.23
2023-01-31T21:19:11.102Z,1.29
2023-01-31T21:22:38.854Z,1.32
2023-01-31T21:25:19.959Z,1.32
2023-01-31T21:28:28.628Z,1.33
2023-01-31T21:31:56.590Z,1.37
2023-01-31T21:34:50.301Z,1.39
2023-01-31T21:38:02.240Z,1.41
2023-01-31T21:41:10.649Z,1.46
2023-01-31T21:44:20.150Z,1.46
2023-01-31T21:47:10.177Z,1.51
2023-01-31T21:50:37.808Z,1.55
2023-01-31T21:53:48.980Z,1.57
2023-01-31T21:56:38.130Z,1.49
2023-01-31T22:00:11.026Z,1.52
2023-01-31T22:03:41.285Z,1.52
2023-01-31T22:07:08.880Z,1.59
2023-01-31T22:10:21.205Z,1.63
2023-01-31T22:13:29.740Z,1.67
2023-01-31T22:16:57.635Z,1.73
2023-01-31T22:20:07.372Z,1.79
2023-01-31T22:22:55.879Z,1.77
2023-01-31T22:26:04.562Z,1.78
2023-01-31T22:29:12.524Z,1.87
2023-01-31T22:32:40.142Z,1.96
2023-01-31T22:35:28.154Z,2.03
2023-01-31T22:38:55.757Z,2.05
2023-01-31T22:42:23.537Z,2.06
2023-01-31T22:45:51.413Z,2.02
2023-01-31T22:49:19.523Z,2.07
2023-01-31T22:52:42.506Z,2.03
2023-01-31T22:56:10.475Z,1.99
2023-01-31T22:59:26.304Z,1.91
2023-01-31T23:02:16.016Z,1.84
2023-01-31T23:05:43.960Z,1.84
2023-01-31T23:08:52.386Z,1.78
2023-01-31T23:12:20.236Z,1.77
2023-01-31T23:15:17.939Z,1.78
2023-01-31T23:18:26.619Z,1.78
2023-01-31T23:21:16.253Z,1.77
2023-01-31T23:24:26.157Z,1.79
2023-01-31T23:27:54.436Z,1.76
2023-01-31T23:31:06.228Z,1.76
2023-01-31T23:33:54.383Z,1.76
2023-01-31T23:36:43.289Z,1.76
2023-01-31T23:39:51.221Z,1.76
2023-01-31T23:43:18.806Z,1.75
2023-01-31T23:46:46.721Z,1.76
2023-01-31T23:50:14.627Z,1.80
2023-01-31T23:53:25.581Z,1.80
2023-01-31T23:56:32.508Z,1.85
